createdAt,value
2022-10-23T00:00:41.665Z,17.45
2022-10-23T00:03:10.836Z,15.38
2022-10-23T00:05:41.377Z,15.13
2022-10-23T00:08:09.615Z,14.27
2022-10-23T00:10:41.289Z,17.25
2022-10-23T00:13:09.560Z,18.02
2022-10-23T00:15:37.897Z,19.52
2022-10-23T00:18:05.914Z,16.98
2022-10-23T00:20:35.045Z,14.18
2022-10-23T00:23:02.804Z,12.10
2022-10-23T00:25:30.581Z,20.67
2022-10-23T00:27:58.293Z,13.48
2022-10-23T00:30:26.066Z,14.43
2022-10-23T00:32:53.789Z,13.23
2022-10-23T00:35:21.569Z,15.93
2022-10-23T00:37:50.788Z,14.93
2022-10-23T00:40:19.020Z,14.52
2022-10-23T00:42:46.737Z,14.73
2022-10-23T00:45:22.819Z,13.95
2022-10-23T00:47:51.080Z,15.23
2022-10-23T00:50:19.690Z,14.75
2022-10-23T00:52:52.223Z,15.82
2022-10-23T00:55:22.785Z,20.17
2022-10-23T00:57:52.294Z,17.30
2022-10-23T01:00:24.147Z,13.40
2022-10-23T01:02:52.709Z,14.70
2022-10-23T01:05:26.209Z,16.73
2022-10-23T01:08:03.024Z,15.93
2022-10-23T01:10:36.550Z,13.35
2022-10-23T01:13:09.510Z,13.35
2022-10-23T01:15:44.556Z,14.57
2022-10-23T01:18:18.161Z,17.40
2022-10-23T01:20:54.316Z,16.52
2022-10-23T01:23:51.802Z,18.67
2022-10-23T01:26:32.270Z,20.10
2022-10-23T01:29:05.874Z,13.35
2022-10-23T01:31:37.980Z,14.68
2022-10-23T01:34:13.079Z,14.98
2022-10-23T01:36:47.236Z,14.82
2022-10-23T01:39:19.654Z,16.60
2022-10-23T01:41:51.433Z,17.40
2022-10-23T01:44:31.208Z,19.23
2022-10-23T01:47:00.332Z,15.60
2022-10-23T01:49:32.289Z,17.02
2022-10-23T01:52:04.034Z,22.52
2022-10-23T01:54:34.868Z,18.10
2022-10-23T01:57:04.304Z,15.45
2022-10-23T01:59:38.273Z,16.77
2022-10-23T02:02:09.977Z,17.05
2022-10-23T02:04:41.917Z,16.88
2022-10-23T02:09:37.875Z,15.30
2022-10-23T02:12:09.451Z,15.82
2022-10-23T02:14:51.542Z,17.42
2022-10-23T02:17:27.390Z,16.23
2022-10-23T02:20:01.389Z,20.17
2022-10-23T02:22:32.445Z,17.98
2022-10-23T02:25:06.216Z,16.33
2022-10-23T02:27:38.214Z,17.08
2022-10-23T02:30:13.151Z,16.58
2022-10-23T02:32:45.565Z,15.95
2022-10-23T02:35:14.649Z,16.63
2022-10-23T02:37:42.911Z,18.05
2022-10-23T02:40:12.781Z,16.33
2022-10-23T02:42:55.059Z,14.02
2022-10-23T02:45:32.293Z,14.25
2022-10-23T02:48:05.125Z,16.13
2022-10-23T02:50:41.013Z,17.17
2022-10-23T02:53:18.800Z,14.88
2022-10-23T02:58:29.826Z,16.55
2022-10-23T03:01:04.421Z,18.45
2022-10-23T03:03:36.884Z,15.23
2022-10-23T03:06:06.854Z,15.70
2022-10-23T03:08:43.301Z,14.57
2022-10-23T03:11:11.141Z,14.30
2022-10-23T03:13:38.937Z,15.63
2022-10-23T03:16:08.307Z,16.85
2022-10-23T03:18:36.134Z,17.77
2022-10-23T03:21:04.656Z,17.02
2022-10-23T03:23:34.622Z,16.35
2022-10-23T03:26:02.890Z,16.02
2022-10-23T03:28:37.134Z,15.90
2022-10-23T03:31:05.241Z,16.55
2022-10-23T03:33:34.691Z,16.08
2022-10-23T03:36:11.283Z,14.18
2022-10-23T03:38:39.085Z,17.80
2022-10-23T03:41:07.208Z,16.42
2022-10-23T03:43:34.947Z,14.98
2022-10-23T03:46:03.259Z,24.10
2022-10-23T03:48:32.594Z,15.35
2022-10-23T03:51:01.641Z,15.23
2022-10-23T03:53:29.381Z,13.20
2022-10-23T03:55:57.192Z,22.20
2022-10-23T03:58:24.950Z,14.93
2022-10-23T04:00:52.685Z,13.80
2022-10-23T04:03:20.515Z,13.25
2022-10-23T04:05:49.987Z,13.15
2022-10-23T04:08:20.232Z,14.40
2022-10-23T04:10:50.790Z,14.57
2022-10-23T04:13:21.860Z,15.50
2022-10-23T04:15:50.316Z,12.43
2022-10-23T04:18:18.474Z,14.10
2022-10-23T04:20:49.096Z,17.67
2022-10-23T04:23:17.312Z,16.52
2022-10-23T04:28:24.595Z,14.50
2022-10-23T04:30:52.822Z,12.95
2022-10-23T04:33:22.121Z,13.77
2022-10-23T04:35:51.893Z,14.63
2022-10-23T04:38:19.722Z,15.63
2022-10-23T04:40:48.904Z,11.82
2022-10-23T04:43:21.193Z,14.40
2022-10-23T04:45:49.771Z,13.93
2022-10-23T04:48:17.932Z,12.02
2022-10-23T04:51:07.170Z,12.18
2022-10-23T04:53:53.595Z,13.80
2022-10-23T04:56:41.154Z,15.73
2022-10-23T04:59:13.424Z,14.13
2022-10-23T05:01:42.116Z,12.73
2022-10-23T05:04:10.629Z,14.88
2022-10-23T05:07:04.304Z,14.02
2022-10-23T05:09:54.972Z,13.20
2022-10-23T05:12:41.430Z,14.48
2022-10-23T05:15:09.731Z,14.68
2022-10-23T05:17:42.813Z,11.45
2022-10-23T05:20:16.237Z,13.05
2022-10-23T05:22:45.653Z,13.55
2022-10-23T05:25:14.166Z,13.93
2022-10-23T05:27:49.461Z,13.82
2022-10-23T05:30:18.089Z,11.93
2022-10-23T05:32:46.321Z,14.02
2022-10-23T05:35:19.135Z,14.15
2022-10-23T05:37:51.876Z,12.95
2022-10-23T05:40:23.888Z,13.63
2022-10-23T05:42:57.828Z,15.52
2022-10-23T05:45:44.194Z,13.23
2022-10-23T05:48:41.064Z,12.23
2022-10-23T05:51:23.877Z,15.35
2022-10-23T05:53:56.985Z,16.73
2022-10-23T05:56:35.978Z,13.02
2022-10-23T05:59:11.489Z,16.60
2022-10-23T06:01:51.282Z,14.43
2022-10-23T06:04:35.432Z,18.35
2022-10-23T06:07:24.725Z,14.30
2022-10-23T06:09:54.320Z,17.55
2022-10-23T06:12:22.627Z,14.77
2022-10-23T06:14:53.195Z,13.35
2022-10-23T06:19:50.488Z,12.02
2022-10-23T06:24:59.826Z,18.88
2022-10-23T06:27:28.488Z,11.30
2022-10-23T06:29:57.970Z,12.60
2022-10-23T06:32:25.869Z,14.93
2022-10-23T06:35:10.192Z,14.93
2022-10-23T06:37:38.316Z,12.63
2022-10-23T06:40:10.762Z,13.48
2022-10-23T06:42:51.894Z,10.90
2022-10-23T06:45:36.779Z,12.85
2022-10-23T06:48:24.748Z,13.45
2022-10-23T06:51:06.681Z,21.38
2022-10-23T06:53:40.994Z,15.13
2022-10-23T06:56:30.314Z,14.23
2022-10-23T06:59:00.167Z,17.17
2022-10-23T07:01:29.654Z,14.32
2022-10-23T07:03:57.610Z,13.70
2022-10-23T07:06:27.450Z,16.60
2022-10-23T07:08:55.400Z,12.80
2022-10-23T07:11:41.566Z,12.82
2022-10-23T07:14:09.333Z,14.88
2022-10-23T07:16:38.745Z,15.73
2022-10-23T07:19:06.936Z,11.93
2022-10-23T07:21:57.917Z,13.13
2022-10-23T07:24:43.808Z,10.77
2022-10-23T07:27:21.565Z,12.13
2022-10-23T07:29:55.968Z,12.23
2022-10-23T07:32:28.105Z,13.65
2022-10-23T07:38:04.779Z,11.90
2022-10-23T07:43:04.651Z,12.48
2022-10-23T07:45:32.349Z,13.85
2022-10-23T07:48:07.508Z,13.13
2022-10-23T07:50:55.520Z,12.80
2022-10-23T07:53:26.418Z,15.57
2022-10-23T07:55:58.421Z,14.98
2022-10-23T07:58:31.170Z,14.43
2022-10-23T08:01:18.330Z,14.05
2022-10-23T08:03:49.478Z,11.77
2022-10-23T08:06:17.564Z,14.70
2022-10-23T08:11:24.874Z,12.40
2022-10-23T08:13:53.009Z,13.20
2022-10-23T08:16:22.229Z,10.45
2022-10-23T08:19:08.068Z,11.50
2022-10-23T08:21:38.228Z,10.48
2022-10-23T08:24:06.695Z,13.27
2022-10-23T08:26:34.609Z,13.63
2022-10-23T08:29:02.342Z,11.38
2022-10-23T08:31:30.675Z,12.98
2022-10-23T08:34:20.823Z,14.27
2022-10-23T08:36:50.938Z,12.00
2022-10-23T08:39:19.168Z,13.05
2022-10-23T08:42:02.844Z,10.52
2022-10-23T08:44:34.806Z,12.90
2022-10-23T08:47:06.409Z,12.55
2022-10-23T08:49:51.071Z,10.95
2022-10-23T08:52:25.457Z,11.00
2022-10-23T08:55:05.595Z,11.00
2022-10-23T08:57:41.283Z,11.63
2022-10-23T09:00:15.281Z,13.18
2022-10-23T09:02:45.091Z,10.95
2022-10-23T09:05:18.863Z,9.80
2022-10-23T09:08:02.519Z,10.88
2022-10-23T09:10:38.834Z,12.20
2022-10-23T09:13:41.304Z,10.23
2022-10-23T09:16:21.210Z,13.40
2022-10-23T09:18:50.703Z,11.00
2022-10-23T09:21:20.853Z,9.57
2022-10-23T09:23:48.664Z,10.15
2022-10-23T09:26:18.989Z,14.63
2022-10-23T09:28:49.852Z,11.27
2022-10-23T09:31:18.493Z,9.00
2022-10-23T09:33:55.971Z,10.73
2022-10-23T09:36:29.042Z,11.60
2022-10-23T09:38:58.827Z,8.40
2022-10-23T09:41:29.952Z,8.85
2022-10-23T09:46:38.714Z,11.20
2022-10-23T09:49:07.443Z,10.00
2022-10-23T09:51:36.648Z,11.48
2022-10-23T09:54:04.701Z,10.52
2022-10-23T09:56:34.717Z,7.90
2022-10-23T09:59:05.438Z,10.70
2022-10-23T10:01:36.159Z,12.05
2022-10-23T10:04:38.163Z,9.25
2022-10-23T10:07:18.702Z,7.95
2022-10-23T10:09:46.760Z,12.15
2022-10-23T10:12:32.353Z,11.73
2022-10-23T10:15:07.348Z,10.23
2022-10-23T10:17:41.005Z,11.63
2022-10-23T10:20:25.352Z,8.88
2022-10-23T10:23:00.349Z,8.65
2022-10-23T10:25:33.976Z,10.23
2022-10-23T10:28:18.142Z,8.48
2022-10-23T10:31:01.355Z,8.38
2022-10-23T10:33:37.754Z,6.15
2022-10-23T10:36:14.347Z,8.23
2022-10-23T10:38:51.213Z,8.68
2022-10-23T10:41:30.008Z,8.45
2022-10-23T10:44:14.322Z,7.18
2022-10-23T10:46:52.475Z,14.27
2022-10-23T10:49:28.046Z,11.32
2022-10-23T10:52:23.344Z,9.40
2022-10-23T10:55:03.629Z,10.50
2022-10-23T10:57:34.935Z,7.40
2022-10-23T11:00:07.189Z,7.35
2022-10-23T11:02:41.723Z,7.90
2022-10-23T11:05:20.849Z,9.10
2022-10-23T11:07:56.416Z,9.88
2022-10-23T11:10:25.705Z,10.63
2022-10-23T11:12:53.544Z,9.68
2022-10-23T11:15:25.342Z,6.55
2022-10-23T11:17:57.658Z,8.88
2022-10-23T11:20:38.897Z,6.95
2022-10-23T11:23:24.457Z,17.00
2022-10-23T11:26:06.182Z,10.05
2022-10-23T11:28:53.002Z,8.10
2022-10-23T11:31:30.558Z,8.63
2022-10-23T11:34:18.986Z,7.45
2022-10-23T11:36:51.309Z,9.23
2022-10-23T11:39:22.799Z,9.05
2022-10-23T11:41:55.226Z,9.40
2022-10-23T11:44:42.669Z,7.20
2022-10-23T11:47:29.833Z,8.20
2022-10-23T11:50:25.834Z,7.68
2022-10-23T11:53:12.806Z,8.52
2022-10-23T11:55:42.056Z,8.18
2022-10-23T11:58:23.834Z,9.55
2022-10-23T12:00:56.678Z,8.98
2022-10-23T12:03:30.425Z,9.43
2022-10-23T12:06:03.157Z,8.98
2022-10-23T12:08:34.024Z,10.70
2022-10-23T12:11:01.909Z,8.48
2022-10-23T12:13:44.228Z,8.43
2022-10-23T12:16:12.450Z,7.90
2022-10-23T12:18:48.272Z,6.47
2022-10-23T12:21:19.677Z,6.70
2022-10-23T12:24:24.224Z,8.77
2022-10-23T12:27:07.328Z,7.90
2022-10-23T12:29:52.193Z,9.10
2022-10-23T12:32:45.131Z,16.45
2022-10-23T12:35:54.426Z,10.68
2022-10-23T12:38:26.233Z,8.20
2022-10-23T12:40:57.573Z,8.35
2022-10-23T12:43:28.589Z,8.00
2022-10-23T12:46:17.810Z,7.70
2022-10-23T12:48:49.664Z,9.80
2022-10-23T12:51:23.776Z,9.25
2022-10-23T12:53:52.006Z,7.50
2022-10-23T12:56:20.368Z,7.30
2022-10-23T12:58:52.289Z,9.55
2022-10-23T13:01:28.097Z,8.55
2022-10-23T13:04:03.483Z,8.50
2022-10-23T13:06:31.295Z,8.02
2022-10-23T13:08:59.624Z,8.85
2022-10-23T13:11:38.575Z,8.43
2022-10-23T13:16:41.730Z,8.40
2022-10-23T13:19:23.764Z,9.55
2022-10-23T13:21:51.588Z,10.23
2022-10-23T13:24:22.428Z,7.25
2022-10-23T13:26:56.544Z,8.75
2022-10-23T13:32:37.329Z,6.97
2022-10-23T13:35:21.736Z,10.50
2022-10-23T13:37:50.917Z,7.78
2022-10-23T13:40:24.899Z,9.60
2022-10-23T13:42:54.396Z,8.88
2022-10-23T13:45:25.507Z,9.55
2022-10-23T13:47:54.645Z,10.18
2022-10-23T13:50:22.414Z,7.10
2022-10-23T13:52:50.190Z,8.07
2022-10-23T13:55:22.532Z,6.93
2022-10-23T13:57:50.317Z,10.48
2022-10-23T14:00:18.809Z,7.25
2022-10-23T14:02:46.683Z,8.38
2022-10-23T14:05:15.819Z,7.60
2022-10-23T14:07:43.841Z,9.70
2022-10-23T14:10:11.697Z,8.32
2022-10-23T14:12:41.211Z,7.03
2022-10-23T14:15:11.149Z,7.97
2022-10-23T14:17:39.223Z,11.60
2022-10-23T14:20:08.319Z,7.82
2022-10-23T14:22:37.469Z,6.90
2022-10-23T14:25:05.922Z,8.25
2022-10-23T14:27:33.649Z,9.18
2022-10-23T14:30:01.449Z,9.07
2022-10-23T14:32:29.182Z,9.23
2022-10-23T14:34:56.966Z,10.38
2022-10-23T14:37:24.681Z,8.00
2022-10-23T14:39:53.788Z,8.35
2022-10-23T14:42:21.679Z,7.95
2022-10-23T14:44:50.419Z,8.57
2022-10-23T14:47:19.133Z,9.85
2022-10-23T14:49:50.354Z,7.82
2022-10-23T14:52:18.281Z,9.18
2022-10-23T14:54:46.016Z,7.70
2022-10-23T14:57:16.716Z,6.82
2022-10-23T14:59:44.817Z,8.18
2022-10-23T15:02:12.686Z,7.57
2022-10-23T15:04:40.775Z,7.50
2022-10-23T15:07:08.969Z,9.20
2022-10-23T15:09:37.340Z,9.35
2022-10-23T15:13:15.746Z,7.80
2022-10-23T15:15:46.480Z,8.80
2022-10-23T15:19:04.928Z,9.35
2022-10-23T15:21:33.489Z,10.25
2022-10-23T15:24:02.179Z,8.45
2022-10-23T15:26:30.024Z,9.30
2022-10-23T15:29:00.223Z,6.22
2022-10-23T15:31:55.969Z,9.32
2022-10-23T15:34:32.974Z,9.23
2022-10-23T15:37:01.314Z,7.55
2022-10-23T15:39:50.035Z,11.88
2022-10-23T15:42:19.047Z,7.57
2022-10-23T15:44:46.809Z,6.97
2022-10-23T15:47:16.138Z,12.18
2022-10-23T15:49:43.848Z,6.68
2022-10-23T15:52:11.806Z,10.13
2022-10-23T15:54:39.600Z,8.10
2022-10-23T15:57:07.346Z,7.57
2022-10-23T15:59:35.248Z,7.65
2022-10-23T16:02:03.135Z,8.52
2022-10-23T16:04:33.190Z,10.10
2022-10-23T16:07:00.882Z,7.75
2022-10-23T16:09:28.719Z,8.10
2022-10-23T16:11:56.461Z,7.35
2022-10-23T16:14:24.212Z,9.35
2022-10-23T16:16:52.140Z,9.82
2022-10-23T16:19:19.931Z,7.85
2022-10-23T16:21:49.042Z,9.73
2022-10-23T16:24:16.806Z,9.50
2022-10-23T16:26:50.266Z,9.90
2022-10-23T16:29:18.069Z,8.63
2022-10-23T16:31:46.161Z,9.80
2022-10-23T16:34:14.012Z,10.48
2022-10-23T16:36:42.249Z,10.77
2022-10-23T16:39:19.310Z,10.70
2022-10-23T16:42:06.083Z,8.52
2022-10-23T16:44:52.631Z,9.00
2022-10-23T16:47:20.513Z,10.55
2022-10-23T16:49:48.257Z,7.68
2022-10-23T16:52:15.971Z,10.90
2022-10-23T16:54:45.292Z,8.57
2022-10-23T16:57:13.082Z,9.70
2022-10-23T16:59:40.802Z,8.68
2022-10-23T17:02:10.380Z,9.20
2022-10-23T17:04:38.609Z,11.02
2022-10-23T17:07:07.103Z,9.55
2022-10-23T17:09:35.766Z,10.88
2022-10-23T17:12:05.248Z,9.68
2022-10-23T17:14:33.237Z,9.23
2022-10-23T17:17:02.390Z,8.68
2022-10-23T17:19:46.968Z,10.45
2022-10-23T17:22:15.438Z,7.50
2022-10-23T17:24:46.284Z,9.27
2022-10-23T17:27:18.093Z,9.10
2022-10-23T17:29:45.815Z,7.03
2022-10-23T17:32:13.807Z,9.30
2022-10-23T17:34:41.636Z,11.15
2022-10-23T17:37:10.175Z,7.40
2022-10-23T17:39:37.918Z,8.10
2022-10-23T17:42:05.686Z,7.85
2022-10-23T17:44:34.753Z,7.05
2022-10-23T17:47:02.527Z,8.00
2022-10-23T17:49:30.306Z,7.85
2022-10-23T17:51:58.888Z,7.80
2022-10-23T17:54:27.981Z,9.25
2022-10-23T17:56:55.965Z,8.20
2022-10-23T17:59:23.781Z,9.10
2022-10-23T18:01:53.375Z,7.78
2022-10-23T18:04:22.122Z,9.32
2022-10-23T18:06:52.730Z,9.27
2022-10-23T18:09:21.602Z,7.88
2022-10-23T18:11:49.561Z,9.43
2022-10-23T18:14:17.610Z,7.82
2022-10-23T18:16:46.482Z,11.02
2022-10-23T18:19:18.023Z,8.45
2022-10-23T18:21:45.846Z,9.02
2022-10-23T18:24:14.027Z,9.15
2022-10-23T18:26:42.980Z,7.57
2022-10-23T18:29:12.525Z,7.63
2022-10-23T18:31:40.520Z,8.05
2022-10-23T18:34:12.919Z,9.23
2022-10-23T18:36:42.245Z,8.23
2022-10-23T18:39:14.824Z,8.85
2022-10-23T18:41:44.726Z,8.23
2022-10-23T18:44:16.744Z,8.88
2022-10-23T18:46:44.681Z,9.30
2022-10-23T18:49:12.501Z,7.82
2022-10-23T18:51:40.560Z,8.63
2022-10-23T18:54:11.847Z,8.13
2022-10-23T18:56:40.292Z,10.77
2022-10-23T18:59:13.261Z,8.95
2022-10-23T19:01:41.130Z,6.43
2022-10-23T19:04:11.571Z,12.02
2022-10-23T19:06:40.042Z,11.05
2022-10-23T19:09:10.984Z,9.27
2022-10-23T19:14:06.603Z,8.30
2022-10-23T19:16:39.199Z,8.70
2022-10-23T19:19:14.112Z,7.63
2022-10-23T19:21:43.464Z,9.32
2022-10-23T19:24:17.028Z,9.10
2022-10-23T19:26:45.081Z,10.10
2022-10-23T19:29:18.074Z,10.15
2022-10-23T19:31:49.190Z,11.70
2022-10-23T19:34:19.761Z,9.48
2022-10-23T19:36:47.749Z,11.15
2022-10-23T19:39:17.439Z,9.18
2022-10-23T19:41:45.523Z,9.43
2022-10-23T19:44:14.815Z,8.43
2022-10-23T19:46:42.678Z,7.53
2022-10-23T19:49:11.228Z,8.30
2022-10-23T19:51:39.461Z,8.55
2022-10-23T19:54:07.920Z,7.40
2022-10-23T19:56:37.520Z,12.52
2022-10-23T19:59:05.768Z,9.27
2022-10-23T20:01:34.254Z,9.13
2022-10-23T20:04:02.149Z,10.50
2022-10-23T20:06:32.247Z,8.68
2022-10-23T20:09:00.052Z,7.95
2022-10-23T20:11:30.337Z,10.85
2022-10-23T20:13:59.866Z,7.88
2022-10-23T20:16:29.506Z,9.82
2022-10-23T20:18:58.133Z,8.73
2022-10-23T20:21:26.502Z,8.95
2022-10-23T20:23:54.353Z,6.35
2022-10-23T20:26:22.446Z,6.72
2022-10-23T20:28:53.755Z,9.35
2022-10-23T20:31:25.316Z,6.63
2022-10-23T20:33:53.685Z,9.55
2022-10-23T20:36:27.501Z,6.68
2022-10-23T20:38:56.112Z,5.82
2022-10-23T20:41:25.997Z,6.70
2022-10-23T20:43:55.452Z,6.38
2022-10-23T20:46:24.908Z,5.78
2022-10-23T20:48:53.459Z,5.05
2022-10-23T20:51:23.320Z,6.15
2022-10-23T20:53:53.044Z,4.75
2022-10-23T20:56:23.489Z,6.80
2022-10-23T20:58:51.692Z,6.63
2022-10-23T21:01:20.035Z,9.30
2022-10-23T21:03:52.354Z,7.75
2022-10-23T21:06:21.668Z,3.95
2022-10-23T21:08:54.927Z,6.88
2022-10-23T21:11:22.941Z,4.60
2022-10-23T21:13:51.543Z,4.00
2022-10-23T21:16:24.892Z,7.35
2022-10-23T21:18:57.404Z,5.22
2022-10-23T21:21:25.960Z,6.45
2022-10-23T21:23:56.215Z,6.97
2022-10-23T21:26:25.129Z,5.35
2022-10-23T21:29:01.157Z,5.15
2022-10-23T21:31:42.373Z,4.32
2022-10-23T21:37:07.500Z,8.15
2022-10-23T21:39:34.276Z,5.85
2022-10-23T21:42:02.148Z,6.53
2022-10-23T21:44:29.844Z,4.07
2022-10-23T21:46:57.594Z,6.88
2022-10-23T21:49:26.673Z,5.78
2022-10-23T21:51:55.110Z,5.03
2022-10-23T21:54:23.187Z,6.93
2022-10-23T21:56:53.442Z,5.00
2022-10-23T21:59:22.809Z,7.60
2022-10-23T22:01:51.548Z,7.55
2022-10-23T22:04:20.639Z,5.45
2022-10-23T22:06:50.653Z,5.47
2022-10-23T22:09:20.987Z,6.53
2022-10-23T22:11:49.584Z,4.70
2022-10-23T22:14:17.320Z,6.32
2022-10-23T22:16:45.206Z,3.78
2022-10-23T22:19:14.649Z,5.43
2022-10-23T22:21:43.127Z,6.00
2022-10-23T22:24:12.185Z,9.00
2022-10-23T22:26:42.465Z,6.97
2022-10-23T22:29:12.392Z,6.38
2022-10-23T22:31:44.234Z,5.85
2022-10-23T22:34:33.970Z,7.97
2022-10-23T22:37:06.465Z,5.78
2022-10-23T22:39:35.532Z,5.25
2022-10-23T22:42:03.269Z,7.57
2022-10-23T22:44:31.268Z,8.63
2022-10-23T22:46:58.972Z,7.65
2022-10-23T22:49:26.735Z,7.43
2022-10-23T22:51:54.459Z,6.07
2022-10-23T22:54:22.246Z,7.95
2022-10-23T22:56:51.290Z,7.00
2022-10-23T22:59:19.075Z,5.18
2022-10-23T23:01:48.380Z,8.32
2022-10-23T23:04:38.240Z,7.10
2022-10-23T23:07:06.043Z,5.38
2022-10-23T23:09:36.865Z,7.47
2022-10-23T23:12:06.184Z,7.28
2022-10-23T23:14:33.917Z,10.13
2022-10-23T23:17:01.747Z,9.00
2022-10-23T23:19:29.595Z,5.35
2022-10-23T23:21:57.775Z,6.88
2022-10-23T23:24:25.683Z,6.18
2022-10-23T23:26:53.655Z,5.30
2022-10-23T23:29:22.807Z,5.07
2022-10-23T23:31:50.637Z,8.95
2022-10-23T23:34:18.376Z,6.75
2022-10-23T23:36:46.170Z,8.75
2022-10-23T23:39:13.882Z,5.28
2022-10-23T23:41:41.588Z,8.45
2022-10-23T23:44:11.025Z,7.28
2022-10-23T23:46:40.138Z,8.38
2022-10-23T23:49:07.858Z,9.35
2022-10-23T23:51:35.571Z,8.95
2022-10-23T23:54:03.277Z,7.80
2022-10-23T23:56:31.933Z,8.93
2022-10-23T23:58:59.694Z,9.70
